createdAt,value
2019-05-23T00:00:08.238Z,25.77
2019-05-23T00:02:57.449Z,27.07
2019-05-23T00:05:53.067Z,27.60
2019-05-23T00:08:41.461Z,27.43
2019-05-23T00:11:39.803Z,28.90
2019-05-23T00:14:39.684Z,28.17
2019-05-23T00:17:13.795Z,28.57
2019-05-23T00:19:43.456Z,26.73
2019-05-23T00:22:13.294Z,28.83
2019-05-23T00:24:43.386Z,29.20
2019-05-23T00:27:14.743Z,27.77
2019-05-23T00:29:44.891Z,29.23
2019-05-23T00:32:32.812Z,31.10
2019-05-23T00:35:04.427Z,30.30
2019-05-23T00:37:34.314Z,30.20
2019-05-23T00:40:04.593Z,33.67
2019-05-23T00:42:34.493Z,32.63
2019-05-23T00:45:05.733Z,33.97
2019-05-23T00:47:35.272Z,31.67
2019-05-23T00:50:05.969Z,30.57
2019-05-23T00:52:36.772Z,32.57
2019-05-23T00:55:08.255Z,33.83
2019-05-23T00:57:39.613Z,34.17
2019-05-23T01:00:11.338Z,34.03
2019-05-23T01:02:40.926Z,32.63
2019-05-23T01:05:12.365Z,32.87
2019-05-23T01:07:43.172Z,31.63
2019-05-23T01:10:14.122Z,31.23
2019-05-23T01:12:44.278Z,31.37
2019-05-23T01:15:16.633Z,31.33
2019-05-23T01:17:47.803Z,32.13
2019-05-23T01:20:20.060Z,33.13
2019-05-23T01:22:51.081Z,34.83
2019-05-23T01:25:22.703Z,34.27
2019-05-23T01:27:53.024Z,35.50
2019-05-23T01:30:27.714Z,36.43
2019-05-23T01:32:59.595Z,36.53
2019-05-23T01:35:29.256Z,35.80
2019-05-23T01:38:01.966Z,37.07
2019-05-23T01:40:31.657Z,38.83
2019-05-23T01:43:02.245Z,38.77
2019-05-23T01:45:32.035Z,39.20
2019-05-23T01:48:01.688Z,38.10
2019-05-23T01:50:31.453Z,37.07
2019-05-23T01:53:01.215Z,36.53
2019-05-23T01:55:31.268Z,34.93
2019-05-23T01:58:01.119Z,34.27
2019-05-23T02:00:31.266Z,36.47
2019-05-23T02:03:00.898Z,35.43
2019-05-23T02:05:30.946Z,35.87
2019-05-23T02:08:00.907Z,38.93
2019-05-23T02:10:31.934Z,40.10
2019-05-23T02:13:01.718Z,40.30
2019-05-23T02:15:31.305Z,40.17
2019-05-23T02:18:02.167Z,38.97
2019-05-23T02:20:33.476Z,41.33
2019-05-23T02:23:05.163Z,40.60
2019-05-23T02:25:35.087Z,36.37
2019-05-23T02:28:06.634Z,39.70
2019-05-23T02:30:37.702Z,41.50
2019-05-23T02:33:07.495Z,41.30
2019-05-23T02:35:39.245Z,37.87
2019-05-23T02:38:25.314Z,37.73
2019-05-23T02:41:03.039Z,42.47
2019-05-23T02:43:33.676Z,37.83
2019-05-23T02:46:07.430Z,42.33
2019-05-23T02:48:41.605Z,40.53
2019-05-23T02:51:14.488Z,39.37
2019-05-23T02:53:45.096Z,38.20
2019-05-23T02:56:16.907Z,40.97
2019-05-23T02:59:03.480Z,40.80
2019-05-23T03:01:42.213Z,42.43
2019-05-23T03:04:15.465Z,41.30
2019-05-23T03:06:45.435Z,35.20
2019-05-23T03:09:19.181Z,41.30
2019-05-23T03:11:49.969Z,36.13
2019-05-23T03:14:19.591Z,37.60
2019-05-23T03:16:52.160Z,36.40
2019-05-23T03:19:27.808Z,36.30
2019-05-23T03:22:00.876Z,38.43
2019-05-23T03:24:32.048Z,38.70
2019-05-23T03:27:07.818Z,34.80
2019-05-23T03:29:37.372Z,37.77
2019-05-23T03:32:25.346Z,39.83
2019-05-23T03:35:04.410Z,35.60
2019-05-23T03:37:35.639Z,36.47
2019-05-23T03:40:07.376Z,39.90
2019-05-23T03:42:37.333Z,36.83
2019-05-23T03:45:09.819Z,37.50
2019-05-23T03:47:40.396Z,34.30
2019-05-23T03:50:10.424Z,33.83
2019-05-23T03:52:40.321Z,32.30
2019-05-23T03:55:10.849Z,31.73
2019-05-23T03:57:41.828Z,32.73
2019-05-23T04:00:14.240Z,32.07
2019-05-23T04:02:44.198Z,32.60
2019-05-23T04:05:15.053Z,29.60
2019-05-23T04:07:44.638Z,29.70
2019-05-23T04:10:14.911Z,30.57
2019-05-23T04:12:45.022Z,27.17
2019-05-23T04:15:15.122Z,27.53
2019-05-23T04:17:45.703Z,30.87
2019-05-23T04:20:17.028Z,27.47
2019-05-23T04:22:46.597Z,25.03
2019-05-23T04:25:16.166Z,25.87
2019-05-23T04:27:45.856Z,23.27
2019-05-23T04:30:16.429Z,24.50
2019-05-23T04:32:46.614Z,25.13
2019-05-23T04:35:16.139Z,22.70
2019-05-23T04:37:45.891Z,24.37
2019-05-23T04:40:15.576Z,23.33
2019-05-23T04:42:45.752Z,21.27
2019-05-23T04:45:16.288Z,21.13
2019-05-23T04:47:46.768Z,22.03
2019-05-23T04:50:17.026Z,21.43
2019-05-23T04:52:47.591Z,21.67
2019-05-23T04:55:19.042Z,22.30
2019-05-23T04:57:49.284Z,22.90
2019-05-23T05:00:20.629Z,22.07
2019-05-23T05:02:50.593Z,22.87
2019-05-23T05:05:22.991Z,23.97
2019-05-23T05:07:52.550Z,21.83
2019-05-23T05:10:22.802Z,21.27
2019-05-23T05:12:53.369Z,22.67
2019-05-23T05:15:24.021Z,22.80
2019-05-23T05:17:53.593Z,22.37
2019-05-23T05:20:23.610Z,21.53
2019-05-23T05:22:53.893Z,21.50
2019-05-23T05:25:23.479Z,20.27
2019-05-23T05:27:53.524Z,20.13
2019-05-23T05:30:23.633Z,20.33
2019-05-23T05:32:53.470Z,20.97
2019-05-23T05:35:22.975Z,21.57
2019-05-23T05:37:52.925Z,20.97
2019-05-23T05:40:22.488Z,20.00
2019-05-23T05:42:53.065Z,21.47
2019-05-23T05:45:24.045Z,20.80
2019-05-23T05:47:55.527Z,20.23
2019-05-23T05:50:26.061Z,20.27
2019-05-23T05:52:56.741Z,19.07
2019-05-23T05:55:26.473Z,18.02
2019-05-23T05:57:57.654Z,17.60
2019-05-23T06:00:38.562Z,18.02
2019-05-23T06:03:08.803Z,17.82
2019-05-23T06:05:56.816Z,18.85
2019-05-23T06:08:27.852Z,19.73
2019-05-23T06:10:57.836Z,18.95
2019-05-23T06:13:28.140Z,20.40
2019-05-23T06:15:58.707Z,20.82
2019-05-23T06:18:28.225Z,20.20
2019-05-23T06:20:59.183Z,20.15
2019-05-23T06:23:29.711Z,20.17
2019-05-23T06:25:59.277Z,21.17
2019-05-23T06:28:30.582Z,20.52
2019-05-23T06:31:01.202Z,22.93
2019-05-23T06:33:31.536Z,22.32
2019-05-23T06:36:02.002Z,24.77
2019-05-23T06:38:32.347Z,25.08
2019-05-23T06:41:04.021Z,24.35
2019-05-23T06:43:35.481Z,24.98
2019-05-23T06:46:05.796Z,26.17
2019-05-23T06:48:35.752Z,26.42
2019-05-23T06:51:05.467Z,26.60
2019-05-23T06:53:35.091Z,26.62
2019-05-23T06:56:05.170Z,26.07
2019-05-23T06:58:36.228Z,25.68
2019-05-23T07:01:05.806Z,26.82
2019-05-23T07:03:42.705Z,26.57
2019-05-23T07:06:08.011Z,26.27
2019-05-23T07:08:37.601Z,27.67
2019-05-23T07:11:07.261Z,27.77
2019-05-23T07:13:38.498Z,27.65
2019-05-23T07:16:08.159Z,27.45
2019-05-23T07:18:38.312Z,26.57
2019-05-23T07:21:09.078Z,26.52
2019-05-23T07:23:39.108Z,25.75
2019-05-23T07:26:08.923Z,25.17
2019-05-23T07:28:38.734Z,25.37
2019-05-23T07:31:09.295Z,23.75
2019-05-23T07:33:39.496Z,23.55
2019-05-23T07:36:09.325Z,24.95
2019-05-23T07:38:40.737Z,23.42
2019-05-23T07:41:10.729Z,25.15
2019-05-23T07:43:40.594Z,22.67
2019-05-23T07:46:10.158Z,23.15
2019-05-23T07:48:40.147Z,22.27
2019-05-23T07:51:10.779Z,22.60
2019-05-23T07:53:58.582Z,25.10
2019-05-23T07:56:30.891Z,27.52
2019-05-23T07:59:00.600Z,26.65
2019-05-23T08:01:32.750Z,23.90
2019-05-23T08:04:19.586Z,24.82
2019-05-23T08:06:33.850Z,24.85
2019-05-23T08:09:04.307Z,24.63
2019-05-23T08:11:33.966Z,24.40
2019-05-23T08:14:04.077Z,23.98
2019-05-23T08:16:34.337Z,22.60
2019-05-23T08:19:04.317Z,21.77
2019-05-23T08:21:34.408Z,22.22
2019-05-23T08:24:05.353Z,22.00
2019-05-23T08:26:36.897Z,21.23
2019-05-23T08:29:27.458Z,21.20
2019-05-23T08:31:38.601Z,20.23
2019-05-23T08:34:08.849Z,21.02
2019-05-23T08:36:38.787Z,20.43
2019-05-23T08:39:10.449Z,19.90
2019-05-23T08:41:40.958Z,19.87
2019-05-23T08:44:11.672Z,20.52
2019-05-23T08:46:42.139Z,17.20
2019-05-23T08:49:11.773Z,15.70
2019-05-23T08:51:41.573Z,14.73
2019-05-23T08:54:11.336Z,17.25
2019-05-23T08:56:40.958Z,17.98
2019-05-23T08:59:10.635Z,17.55
2019-05-23T09:01:40.594Z,16.62
2019-05-23T09:04:10.270Z,14.30
2019-05-23T09:06:39.989Z,15.20
2019-05-23T09:09:28.457Z,15.63
2019-05-23T09:11:42.040Z,13.55
2019-05-23T09:14:11.933Z,15.13
2019-05-23T09:16:41.611Z,13.03
2019-05-23T09:19:11.161Z,13.62
2019-05-23T09:21:41.002Z,11.53
2019-05-23T09:24:11.408Z,13.65
2019-05-23T09:26:41.463Z,12.65
2019-05-23T09:29:11.270Z,11.70
2019-05-23T09:31:41.140Z,11.80
2019-05-23T09:34:11.012Z,10.93
2019-05-23T09:36:40.603Z,12.05
2019-05-23T09:39:12.163Z,11.33
2019-05-23T09:41:42.223Z,12.93
2019-05-23T09:44:12.891Z,11.90
2019-05-23T09:46:42.495Z,11.00
2019-05-23T09:49:12.183Z,11.18
2019-05-23T09:51:41.852Z,10.05
2019-05-23T09:54:11.675Z,9.85
2019-05-23T09:56:43.050Z,9.05
2019-05-23T09:59:13.756Z,9.50
2019-05-23T10:01:43.974Z,9.78
2019-05-23T10:04:13.560Z,9.20
2019-05-23T10:06:46.148Z,10.60
2019-05-23T10:09:14.869Z,11.65
2019-05-23T10:11:44.838Z,9.60
2019-05-23T10:14:20.284Z,11.70
2019-05-23T10:16:49.868Z,11.12
2019-05-23T10:19:19.946Z,10.20
2019-05-23T10:21:49.521Z,10.48
2019-05-23T10:24:19.551Z,9.33
2019-05-23T10:26:49.059Z,10.38
2019-05-23T10:29:18.894Z,9.60
2019-05-23T10:31:48.792Z,7.97
2019-05-23T10:34:19.350Z,10.18
2019-05-23T10:36:49.175Z,9.60
2019-05-23T10:39:19.576Z,9.33
2019-05-23T10:41:50.320Z,8.25
2019-05-23T10:44:19.913Z,8.40
2019-05-23T10:46:49.403Z,11.22
2019-05-23T10:49:19.134Z,10.35
2019-05-23T10:51:49.025Z,10.53
2019-05-23T10:54:19.014Z,10.98
2019-05-23T10:56:48.514Z,10.70
2019-05-23T10:59:18.156Z,9.70
2019-05-23T11:01:48.500Z,8.38
2019-05-23T11:04:18.002Z,8.58
2019-05-23T11:06:47.710Z,8.08
2019-05-23T11:09:17.564Z,9.88
2019-05-23T11:11:47.567Z,10.48
2019-05-23T11:14:17.345Z,9.73
2019-05-23T11:16:47.362Z,8.58
2019-05-23T11:19:17.269Z,8.00
2019-05-23T11:21:47.541Z,9.35
2019-05-23T11:24:17.873Z,9.73
2019-05-23T11:26:48.060Z,8.78
2019-05-23T11:29:17.578Z,9.28
2019-05-23T11:31:47.442Z,9.15
2019-05-23T11:34:17.419Z,10.15
2019-05-23T11:36:46.977Z,8.78
2019-05-23T11:39:18.162Z,8.90
2019-05-23T11:41:48.088Z,8.55
2019-05-23T11:44:17.991Z,8.50
2019-05-23T11:46:47.883Z,7.55
2019-05-23T11:49:18.015Z,6.55
2019-05-23T11:51:47.585Z,7.30
2019-05-23T11:54:18.504Z,7.33
2019-05-23T11:56:49.471Z,7.90
2019-05-23T11:59:19.428Z,7.08
2019-05-23T12:02:00.141Z,5.40
2019-05-23T12:04:37.010Z,5.92
2019-05-23T12:07:20.405Z,5.28
2019-05-23T12:09:49.981Z,4.35
2019-05-23T12:12:20.429Z,5.90
2019-05-23T12:14:50.853Z,5.62
2019-05-23T12:17:21.303Z,6.10
2019-05-23T12:19:50.932Z,4.85
2019-05-23T12:22:21.534Z,4.72
2019-05-23T12:24:51.598Z,6.12
2019-05-23T12:27:21.389Z,4.35
2019-05-23T12:29:51.041Z,4.67
2019-05-23T12:32:21.126Z,3.30
2019-05-23T12:35:08.468Z,3.22
2019-05-23T12:37:22.618Z,3.00
2019-05-23T12:39:52.945Z,3.30
2019-05-23T12:42:22.846Z,3.35
2019-05-23T12:44:52.489Z,3.17
2019-05-23T12:47:32.836Z,3.33
2019-05-23T12:50:07.539Z,2.20
2019-05-23T12:52:37.048Z,2.95
2019-05-23T12:55:06.629Z,2.67
2019-05-23T12:57:36.325Z,2.67
2019-05-23T13:00:07.865Z,2.55
2019-05-23T13:02:37.772Z,2.80
2019-05-23T13:05:09.045Z,2.58
2019-05-23T13:07:38.904Z,2.60
2019-05-23T13:10:08.963Z,2.90
2019-05-23T13:12:38.518Z,2.85
2019-05-23T13:15:08.567Z,2.58
2019-05-23T13:17:38.057Z,2.50
2019-05-23T13:20:07.817Z,2.75
2019-05-23T13:22:37.294Z,2.20
2019-05-23T13:25:06.768Z,2.30
2019-05-23T13:27:36.336Z,2.37
2019-05-23T13:30:06.362Z,2.60
2019-05-23T13:32:36.324Z,2.17
2019-05-23T13:35:06.352Z,2.00
2019-05-23T13:37:50.432Z,2.30
2019-05-23T13:40:08.861Z,2.42
2019-05-23T13:42:38.771Z,2.05
2019-05-23T13:45:08.749Z,2.20
2019-05-23T13:47:38.701Z,2.20
2019-05-23T13:50:09.025Z,1.90
2019-05-23T13:52:38.582Z,1.75
2019-05-23T13:55:08.421Z,2.08
2019-05-23T13:57:38.137Z,2.30
2019-05-23T14:00:07.989Z,2.10
2019-05-23T14:02:37.827Z,1.90
2019-05-23T14:05:08.957Z,2.00
2019-05-23T14:07:38.966Z,2.27
2019-05-23T14:10:09.205Z,2.00
2019-05-23T14:12:39.457Z,2.80
2019-05-23T14:15:10.457Z,1.80
2019-05-23T14:17:41.723Z,2.40
2019-05-23T14:20:11.572Z,2.80
2019-05-23T14:22:45.892Z,2.45
2019-05-23T14:25:16.217Z,2.20
2019-05-23T14:27:51.664Z,1.98
2019-05-23T14:30:39.583Z,1.90
2019-05-23T14:33:20.884Z,2.50
2019-05-23T14:35:52.371Z,2.08
2019-05-23T14:38:30.833Z,2.37
2019-05-23T14:40:54.854Z,2.17
2019-05-23T14:43:25.712Z,2.05
2019-05-23T14:46:01.065Z,1.95
2019-05-23T14:48:54.511Z,1.80
2019-05-23T14:51:55.390Z,2.40
2019-05-23T14:54:38.345Z,2.10
2019-05-23T14:57:08.795Z,2.22
2019-05-23T14:59:38.707Z,2.60
2019-05-23T15:02:15.166Z,2.33
2019-05-23T15:04:45.087Z,2.10
2019-05-23T15:07:15.082Z,2.35
2019-05-23T15:09:44.566Z,2.08
2019-05-23T15:12:14.580Z,2.20
2019-05-23T15:14:44.534Z,2.60
2019-05-23T15:17:14.274Z,2.10
2019-05-23T15:19:45.250Z,2.00
2019-05-23T15:22:16.058Z,1.87
2019-05-23T15:24:45.641Z,1.92
2019-05-23T15:27:15.565Z,2.10
2019-05-23T15:29:45.109Z,2.50
2019-05-23T15:32:14.942Z,2.22
2019-05-23T15:34:44.519Z,2.30
2019-05-23T15:37:14.441Z,2.00
2019-05-23T15:39:44.335Z,2.12
2019-05-23T15:42:14.211Z,2.20
2019-05-23T15:44:43.730Z,1.75
2019-05-23T15:47:13.366Z,2.10
2019-05-23T15:49:44.872Z,2.12
2019-05-23T15:52:27.088Z,2.30
2019-05-23T15:55:01.580Z,1.90
2019-05-23T15:57:46.325Z,2.37
2019-05-23T16:00:38.242Z,2.22
2019-05-23T16:03:17.411Z,2.02
2019-05-23T16:05:47.251Z,2.50
2019-05-23T16:08:17.071Z,2.35
2019-05-23T16:10:46.625Z,2.02
2019-05-23T16:13:16.854Z,2.10
2019-05-23T16:15:46.710Z,2.00
2019-05-23T16:18:16.613Z,2.10
2019-05-23T16:20:46.536Z,2.20
2019-05-23T16:23:16.098Z,2.02
2019-05-23T16:25:45.948Z,1.70
2019-05-23T16:28:15.520Z,2.10
2019-05-23T16:30:45.875Z,2.10
2019-05-23T16:33:15.802Z,2.00
2019-05-23T16:35:45.672Z,2.00
2019-05-23T16:38:15.523Z,1.90
2019-05-23T16:40:45.809Z,2.17
2019-05-23T16:43:15.554Z,2.00
2019-05-23T16:45:45.131Z,1.85
2019-05-23T16:48:14.761Z,1.77
2019-05-23T16:50:44.285Z,1.85
2019-05-23T16:53:13.870Z,1.77
2019-05-23T16:55:50.124Z,1.72
2019-05-23T16:58:28.050Z,1.60
2019-05-23T17:01:23.478Z,1.50
2019-05-23T17:03:58.885Z,1.70
2019-05-23T17:06:47.608Z,1.80
2019-05-23T17:09:35.767Z,1.60
2019-05-23T17:12:27.563Z,1.50
2019-05-23T17:15:02.257Z,1.65
2019-05-23T17:18:02.197Z,1.50
2019-05-23T17:20:50.466Z,1.70
2019-05-23T17:23:35.065Z,1.57
2019-05-23T17:26:16.752Z,1.45
2019-05-23T17:28:49.336Z,1.40
2019-05-23T17:31:20.259Z,1.62
2019-05-23T17:33:50.648Z,1.25
2019-05-23T17:36:22.132Z,2.00
2019-05-23T17:38:52.525Z,1.60
2019-05-23T17:41:22.889Z,1.72
2019-05-23T17:43:52.774Z,2.15
2019-05-23T17:46:22.457Z,1.95
2019-05-23T17:48:52.898Z,2.10
2019-05-23T17:51:22.741Z,2.15
2019-05-23T17:53:52.695Z,2.35
2019-05-23T17:56:22.508Z,2.05
2019-05-23T17:58:52.915Z,2.70
2019-05-23T18:01:24.075Z,3.10
2019-05-23T18:03:54.105Z,1.90
2019-05-23T18:06:24.011Z,2.45
2019-05-23T18:08:53.724Z,2.10
2019-05-23T18:11:23.482Z,2.50
2019-05-23T18:13:54.407Z,3.47
2019-05-23T18:16:24.737Z,2.65
2019-05-23T18:18:54.273Z,3.02
2019-05-23T18:21:23.950Z,3.10
2019-05-23T18:23:54.263Z,3.33
2019-05-23T18:26:23.809Z,3.17
2019-05-23T18:28:54.014Z,2.45
2019-05-23T18:31:26.945Z,2.62
2019-05-23T18:33:57.800Z,2.67
2019-05-23T18:36:27.384Z,3.02
2019-05-23T18:38:56.933Z,3.42
2019-05-23T18:41:27.387Z,2.98
2019-05-23T18:43:57.715Z,3.05
2019-05-23T18:46:37.189Z,3.12
2019-05-23T18:49:05.701Z,2.90
2019-05-23T18:51:35.269Z,2.60
2019-05-23T18:54:06.789Z,2.72
2019-05-23T18:56:36.361Z,2.72
2019-05-23T18:59:09.460Z,3.08
2019-05-23T19:01:39.995Z,3.52
2019-05-23T19:04:11.125Z,2.55
2019-05-23T19:06:42.099Z,2.47
2019-05-23T19:09:14.096Z,2.20
2019-05-23T19:11:43.982Z,2.40
2019-05-23T19:14:14.034Z,2.25
2019-05-23T19:16:45.290Z,2.50
2019-05-23T19:19:15.879Z,2.22
2019-05-23T19:21:46.275Z,2.30
2019-05-23T19:24:15.836Z,2.20
2019-05-23T19:26:45.936Z,2.62
2019-05-23T19:29:17.657Z,2.30
2019-05-23T19:31:47.546Z,2.22
2019-05-23T19:34:17.395Z,3.02
2019-05-23T19:36:46.872Z,3.27
2019-05-23T19:39:17.119Z,4.30
2019-05-23T19:41:46.665Z,4.40
2019-05-23T19:44:16.606Z,4.50
2019-05-23T19:46:46.255Z,4.30
2019-05-23T19:49:16.215Z,3.72
2019-05-23T19:51:45.749Z,3.92
2019-05-23T19:54:15.932Z,4.35
2019-05-23T19:56:46.948Z,4.22
2019-05-23T19:59:20.755Z,4.03
2019-05-23T20:02:08.696Z,3.40
2019-05-23T20:04:40.733Z,4.17
2019-05-23T20:07:10.688Z,3.47
2019-05-23T20:09:41.771Z,3.72
2019-05-23T20:12:13.096Z,3.67
2019-05-23T20:14:42.766Z,3.17
2019-05-23T20:17:12.958Z,3.35
2019-05-23T20:19:42.520Z,3.27
2019-05-23T20:22:12.754Z,3.38
2019-05-23T20:24:42.330Z,3.45
2019-05-23T20:27:11.871Z,3.87
2019-05-23T20:29:41.493Z,3.58
2019-05-23T20:32:14.800Z,3.60
2019-05-23T20:34:44.362Z,3.60
2019-05-23T20:37:13.817Z,3.83
2019-05-23T20:39:43.451Z,3.67
2019-05-23T20:42:13.461Z,3.87
2019-05-23T20:44:43.316Z,3.65
2019-05-23T20:47:13.490Z,3.47
2019-05-23T20:49:42.988Z,3.50
2019-05-23T20:52:12.440Z,4.20
2019-05-23T20:54:42.258Z,4.00
2019-05-23T20:57:12.685Z,4.08
2019-05-23T20:59:42.731Z,3.95
2019-05-23T21:02:12.380Z,3.98
2019-05-23T21:04:42.277Z,3.83
2019-05-23T21:07:12.242Z,3.50
2019-05-23T21:09:41.738Z,3.77
2019-05-23T21:12:28.409Z,3.60
2019-05-23T21:14:43.032Z,3.52
2019-05-23T21:17:12.600Z,3.90
2019-05-23T21:19:42.181Z,3.70
2019-05-23T21:22:11.743Z,3.62
2019-05-23T21:24:41.313Z,3.33
2019-05-23T21:27:10.770Z,3.85
2019-05-23T21:29:40.945Z,3.62
2019-05-23T21:32:10.862Z,4.37
2019-05-23T21:34:40.808Z,3.67
2019-05-23T21:37:10.662Z,3.97
2019-05-23T21:39:40.380Z,4.00
2019-05-23T21:42:09.934Z,4.30
2019-05-23T21:44:39.452Z,3.98
2019-05-23T21:47:09.786Z,3.90
2019-05-23T21:49:39.605Z,4.00
2019-05-23T21:52:09.362Z,4.20
2019-05-23T21:54:39.009Z,4.20
2019-05-23T21:57:08.634Z,4.13
2019-05-23T21:59:38.093Z,4.50
2019-05-23T22:02:18.438Z,4.10
2019-05-23T22:04:56.637Z,3.90
2019-05-23T22:07:26.877Z,4.00
2019-05-23T22:09:56.355Z,4.43
2019-05-23T22:12:25.895Z,4.33
2019-05-23T22:14:55.650Z,4.40
2019-05-23T22:17:26.850Z,4.80
2019-05-23T22:19:56.383Z,4.90
2019-05-23T22:22:26.913Z,5.20
2019-05-23T22:24:56.889Z,4.17
2019-05-23T22:27:27.067Z,4.10
2019-05-23T22:29:56.571Z,4.30
2019-05-23T22:32:26.676Z,4.60
2019-05-23T22:35:03.375Z,4.07
2019-05-23T22:37:32.979Z,4.40
2019-05-23T22:40:03.856Z,4.40
2019-05-23T22:42:34.679Z,4.20
2019-05-23T22:45:06.585Z,4.30
2019-05-23T22:47:36.390Z,3.83
2019-05-23T22:50:06.541Z,4.10
2019-05-23T22:52:36.124Z,4.20
2019-05-23T22:55:05.713Z,4.13
2019-05-23T22:57:35.238Z,4.03
2019-05-23T23:00:05.076Z,3.73
2019-05-23T23:02:35.838Z,4.23
2019-05-23T23:05:06.563Z,3.83
2019-05-23T23:07:36.423Z,4.30
2019-05-23T23:10:06.596Z,4.00
2019-05-23T23:12:36.354Z,3.90
2019-05-23T23:15:06.486Z,3.90
2019-05-23T23:17:36.417Z,3.93
2019-05-23T23:20:06.446Z,4.00
2019-05-23T23:22:36.578Z,3.80
2019-05-23T23:25:06.282Z,3.70
2019-05-23T23:27:35.873Z,3.83
2019-05-23T23:30:05.542Z,4.73
2019-05-23T23:32:35.188Z,4.17
2019-05-23T23:35:04.988Z,4.40
2019-05-23T23:37:34.547Z,4.37
2019-05-23T23:40:05.225Z,4.47
2019-05-23T23:42:34.759Z,4.00
2019-05-23T23:45:22.445Z,4.30
2019-05-23T23:48:10.023Z,4.00
2019-05-23T23:50:57.736Z,4.17
2019-05-23T23:53:45.589Z,4.27
2019-05-23T23:56:33.036Z,4.43
2019-05-23T23:59:02.882Z,4.33
